createdAt,value
2024-01-08T00:03:17.466Z,4.88
2024-01-08T00:08:20.235Z,5.97
2024-01-08T00:13:22.128Z,5.85
2024-01-08T00:18:24.148Z,5.05
2024-01-08T00:23:26.393Z,6.03
2024-01-08T00:28:28.306Z,6.53
2024-01-08T00:33:30.288Z,5.85
2024-01-08T00:38:32.272Z,6.00
2024-01-08T00:43:34.324Z,4.95
2024-01-08T00:48:36.336Z,4.55
2024-01-08T00:53:38.428Z,6.55
2024-01-08T00:58:43.349Z,7.22
2024-01-08T01:03:45.410Z,8.07
2024-01-08T01:08:47.705Z,5.82
2024-01-08T01:13:49.731Z,6.60
2024-01-08T01:18:51.897Z,6.80
2024-01-08T01:23:53.990Z,8.38
2024-01-08T01:28:56.007Z,6.25
2024-01-08T01:33:58.169Z,6.50
2024-01-08T01:39:00.569Z,6.57
2024-01-08T01:44:02.552Z,4.38
2024-01-08T01:49:05.893Z,8.82
2024-01-08T01:54:09.601Z,5.95
2024-01-08T01:59:12.065Z,8.10
2024-01-08T02:04:16.817Z,8.77
2024-01-08T02:09:19.694Z,8.57
2024-01-08T02:14:21.646Z,6.93
2024-01-08T02:19:23.599Z,11.55
2024-01-08T02:24:30.065Z,7.43
2024-01-08T02:29:32.038Z,7.95
2024-01-08T02:34:34.937Z,10.20
2024-01-08T02:39:37.470Z,8.23
2024-01-08T02:44:39.347Z,13.13
2024-01-08T02:49:41.290Z,15.52
2024-01-08T02:54:43.293Z,9.90
2024-01-08T02:59:45.191Z,12.77
2024-01-08T03:04:47.251Z,8.63
2024-01-08T03:09:50.320Z,12.38
2024-01-08T03:14:53.212Z,11.55
2024-01-08T03:19:55.398Z,9.80
2024-01-08T03:24:57.607Z,12.13
2024-01-08T03:29:59.553Z,11.38
2024-01-08T03:35:02.016Z,11.88
2024-01-08T03:40:06.177Z,11.85
2024-01-08T03:45:10.656Z,14.05
2024-01-08T03:50:12.870Z,16.90
2024-01-08T03:55:14.953Z,10.75
2024-01-08T04:00:17.513Z,11.60
2024-01-08T04:05:19.718Z,12.18
2024-01-08T04:10:22.392Z,13.32
2024-01-08T04:15:24.769Z,11.63
2024-01-08T04:20:26.871Z,11.95
2024-01-08T04:25:28.983Z,10.40
2024-01-08T04:30:31.118Z,12.13
2024-01-08T04:35:33.656Z,11.68
2024-01-08T04:40:36.000Z,11.13
2024-01-08T04:45:38.237Z,14.10
2024-01-08T04:50:40.396Z,14.50
2024-01-08T04:55:42.692Z,14.05
2024-01-08T05:00:44.872Z,10.43
2024-01-08T05:05:47.021Z,13.25
2024-01-08T05:10:49.561Z,10.02
2024-01-08T05:15:51.599Z,15.00
2024-01-08T05:20:53.748Z,15.00
2024-01-08T05:26:00.794Z,13.88
2024-01-08T05:31:04.042Z,17.33
2024-01-08T05:36:06.753Z,11.13
2024-01-08T05:41:08.994Z,11.00
2024-01-08T05:46:11.642Z,12.15
2024-01-08T05:51:13.877Z,14.55
2024-01-08T05:56:15.967Z,13.50
2024-01-08T06:01:21.365Z,12.63
2024-01-08T06:06:23.807Z,15.70
2024-01-08T06:11:26.080Z,16.42
2024-01-08T06:16:32.430Z,11.75
2024-01-08T06:21:34.465Z,16.55
2024-01-08T06:26:36.757Z,12.90
2024-01-08T06:31:39.046Z,12.98
2024-01-08T06:36:41.516Z,12.48
2024-01-08T06:41:44.386Z,14.90
2024-01-08T06:46:47.813Z,15.30
2024-01-08T06:51:50.399Z,20.58
2024-01-08T06:56:52.488Z,12.68
2024-01-08T07:01:55.592Z,10.20
2024-01-08T07:06:57.675Z,13.38
2024-01-08T07:12:00.698Z,12.60
2024-01-08T07:17:02.939Z,12.98
2024-01-08T07:22:05.576Z,14.93
2024-01-08T07:27:09.527Z,12.85
2024-01-08T07:32:12.508Z,12.57
2024-01-08T07:37:15.013Z,15.85
2024-01-08T07:42:17.244Z,12.10
2024-01-08T07:47:19.804Z,14.90
2024-01-08T07:52:28.004Z,13.82
2024-01-08T07:57:37.196Z,13.90
2024-01-08T08:02:43.847Z,11.82
2024-01-08T08:07:46.083Z,13.70
2024-01-08T08:12:48.019Z,14.43
2024-01-08T08:17:52.074Z,13.50
2024-01-08T08:22:54.912Z,14.82
2024-01-08T08:27:56.893Z,12.75
2024-01-08T08:33:00.670Z,17.17
2024-01-08T08:38:03.276Z,19.77
2024-01-08T08:43:07.464Z,16.20
2024-01-08T08:48:11.178Z,19.85
2024-01-08T08:53:13.320Z,18.48
2024-01-08T08:58:15.737Z,16.00
2024-01-08T09:03:18.467Z,15.77
2024-01-08T09:08:29.849Z,14.85
2024-01-08T09:13:32.005Z,16.60
2024-01-08T09:18:34.048Z,15.80
2024-01-08T09:23:38.763Z,18.33
2024-01-08T09:28:40.875Z,15.20
2024-01-08T09:33:45.794Z,12.95
2024-01-08T09:38:48.242Z,17.25
2024-01-08T09:43:52.104Z,14.90
2024-01-08T09:48:58.064Z,17.35
2024-01-08T09:54:01.617Z,17.35
2024-01-08T09:59:03.995Z,14.25
2024-01-08T10:04:06.498Z,15.50
2024-01-08T10:09:09.218Z,15.77
2024-01-08T10:14:12.172Z,13.25
2024-01-08T10:19:17.082Z,15.63
2024-01-08T10:24:26.028Z,12.80
2024-01-08T10:29:30.705Z,14.93
2024-01-08T10:34:37.725Z,18.85
2024-01-08T10:39:48.154Z,20.02
2024-01-08T10:44:53.640Z,15.43
2024-01-08T10:50:00.684Z,14.10
2024-01-08T11:00:11.157Z,14.98
2024-01-08T11:10:19.725Z,15.57
2024-01-08T11:15:25.171Z,18.00
2024-01-08T11:20:48.785Z,15.00
2024-01-08T11:25:55.452Z,15.80
2024-01-08T11:31:33.086Z,16.83
2024-01-08T11:36:49.908Z,14.75
2024-01-08T11:41:52.308Z,19.67
2024-01-08T11:46:57.676Z,16.70
2024-01-08T11:52:04.887Z,19.60
2024-01-08T11:57:07.274Z,19.20
2024-01-08T12:02:12.841Z,18.20
2024-01-08T12:07:14.974Z,14.52
2024-01-08T12:12:18.974Z,19.92
2024-01-08T12:17:22.227Z,19.55
2024-01-08T12:22:26.865Z,13.27
2024-01-08T12:27:32.215Z,16.42
2024-01-08T12:32:34.594Z,19.75
2024-01-08T12:37:36.819Z,20.17
2024-01-08T12:42:38.823Z,18.88
2024-01-08T12:47:40.998Z,17.90
2024-01-08T12:52:43.366Z,19.80
2024-01-08T12:57:46.551Z,16.77
2024-01-08T13:02:48.628Z,26.88
2024-01-08T13:07:50.806Z,17.77
2024-01-08T13:12:52.826Z,20.90
2024-01-08T13:17:54.994Z,15.73
2024-01-08T13:22:57.774Z,21.65
2024-01-08T13:28:00.169Z,19.85
2024-01-08T13:33:02.251Z,15.38
2024-01-08T13:38:04.567Z,19.48
2024-01-08T13:43:08.289Z,21.00
2024-01-08T13:48:11.319Z,20.27
2024-01-08T13:53:13.780Z,21.88
2024-01-08T13:58:16.063Z,23.17
2024-01-08T14:03:19.593Z,20.00
2024-01-08T14:08:22.008Z,21.70
2024-01-08T14:13:23.936Z,25.88
2024-01-08T14:18:26.421Z,18.95
2024-01-08T14:23:30.080Z,17.80
2024-01-08T14:28:32.403Z,20.80
2024-01-08T14:33:34.577Z,20.58
2024-01-08T14:38:37.001Z,21.08
2024-01-08T14:43:39.397Z,20.65
2024-01-08T14:48:41.651Z,24.88
2024-01-08T14:53:46.064Z,26.60
2024-01-08T14:58:48.518Z,21.92
2024-01-08T15:03:50.741Z,17.42
2024-01-08T15:08:54.511Z,22.88
2024-01-08T15:13:56.820Z,24.33
2024-01-08T15:18:59.006Z,17.95
2024-01-08T15:24:01.317Z,25.63
2024-01-08T15:29:05.921Z,20.10
2024-01-08T15:34:08.174Z,21.35
2024-01-08T15:39:15.691Z,23.05
2024-01-08T15:44:18.231Z,25.95
2024-01-08T15:49:20.351Z,25.65
2024-01-08T15:54:24.762Z,21.90
2024-01-08T15:59:26.878Z,23.15
2024-01-08T16:04:29.241Z,28.20
2024-01-08T16:09:32.615Z,22.35
2024-01-08T16:14:34.969Z,21.20
2024-01-08T16:19:37.103Z,24.38
2024-01-08T16:24:39.119Z,20.75
2024-01-08T16:29:41.273Z,19.83
2024-01-08T16:34:49.592Z,21.27
2024-01-08T16:40:00.711Z,22.98
2024-01-08T16:45:02.700Z,24.17
2024-01-08T16:50:05.026Z,24.38
2024-01-08T16:55:07.627Z,21.88
2024-01-08T17:00:12.208Z,21.67
2024-01-08T17:05:14.867Z,22.27
2024-01-08T17:10:17.754Z,25.67
2024-01-08T17:15:19.992Z,29.00
2024-01-08T17:20:22.079Z,25.15
2024-01-08T17:25:24.314Z,26.42
2024-01-08T17:30:26.291Z,22.20
2024-01-08T17:35:28.632Z,19.95
2024-01-08T17:40:31.181Z,19.40
2024-01-08T17:45:33.407Z,24.08
2024-01-08T17:50:39.176Z,20.88
2024-01-08T17:55:41.587Z,26.75
2024-01-08T18:00:44.109Z,22.33
2024-01-08T18:05:49.095Z,26.65
2024-01-08T18:10:52.230Z,23.60
2024-01-08T18:15:54.272Z,23.52
2024-01-08T18:20:57.541Z,23.58
2024-01-08T18:25:59.689Z,21.08
2024-01-08T18:31:02.727Z,34.20
2024-01-08T18:36:06.316Z,26.88
2024-01-08T18:41:08.503Z,22.77
2024-01-08T18:46:10.895Z,17.70
2024-01-08T18:51:12.896Z,21.65
2024-01-08T18:56:14.954Z,21.98
2024-01-08T19:01:17.875Z,22.15
2024-01-08T19:06:20.029Z,28.10
2024-01-08T19:11:22.045Z,20.52
2024-01-08T19:16:23.996Z,24.48
2024-01-08T19:21:26.069Z,24.77
2024-01-08T19:26:28.611Z,16.88
2024-01-08T19:31:31.668Z,22.10
2024-01-08T19:36:33.752Z,23.75
2024-01-08T19:41:36.162Z,26.52
2024-01-08T19:46:38.435Z,24.27
2024-01-08T19:51:41.768Z,23.27
2024-01-08T19:56:46.351Z,21.73
2024-01-08T20:01:48.678Z,29.58
2024-01-08T20:06:50.811Z,30.02
2024-01-08T20:11:53.000Z,24.75
2024-01-08T20:16:55.199Z,21.30
2024-01-08T20:21:57.345Z,22.55
2024-01-08T20:27:00.951Z,22.98
2024-01-08T20:32:07.303Z,18.77
2024-01-08T20:37:09.593Z,23.67
2024-01-08T20:42:11.534Z,25.20
2024-01-08T20:47:14.547Z,25.45
2024-01-08T20:52:16.684Z,19.55
2024-01-08T20:57:21.726Z,21.45
2024-01-08T21:02:23.737Z,21.00
2024-01-08T21:07:25.750Z,23.27
2024-01-08T21:12:27.950Z,22.48
2024-01-08T21:17:30.240Z,29.27
2024-01-08T21:22:33.297Z,22.70
2024-01-08T21:27:35.321Z,18.08
2024-01-08T21:32:39.190Z,27.00
2024-01-08T21:37:42.441Z,26.55
2024-01-08T21:42:45.420Z,23.85
2024-01-08T21:47:47.768Z,24.48
2024-01-08T21:52:50.402Z,27.00
2024-01-08T21:57:52.281Z,25.35
2024-01-08T22:02:54.752Z,24.02
2024-01-08T22:07:57.933Z,35.13
2024-01-08T22:13:00.199Z,27.98
2024-01-08T22:18:02.537Z,39.85
2024-01-08T22:23:05.051Z,22.77
2024-01-08T22:28:07.178Z,29.97
2024-01-08T22:33:12.655Z,32.13
2024-01-08T22:38:15.186Z,31.83
2024-01-08T22:43:17.222Z,39.78
2024-01-08T22:48:19.232Z,40.45
2024-01-08T22:53:21.619Z,40.05
2024-01-08T22:58:23.666Z,24.75
2024-01-08T23:03:26.118Z,27.30
2024-01-08T23:08:28.266Z,26.50
2024-01-08T23:13:30.304Z,26.90
2024-01-08T23:18:35.314Z,28.70
2024-01-08T23:23:37.528Z,30.50
2024-01-08T23:28:39.578Z,25.63
2024-01-08T23:33:41.798Z,28.55
2024-01-08T23:38:44.800Z,34.47
2024-01-08T23:43:46.970Z,32.50
2024-01-08T23:48:49.197Z,30.30
2024-01-08T23:53:51.637Z,24.92
2024-01-08T23:58:53.595Z,27.98
